sensor_id;sensor_type;location;lat;lon;timestamp;temperature;humidity
25906;DHT22;13713;52.552;13.204;2022-07-09T00:00:24;24.20;54.10
25906;DHT22;13713;52.552;13.204;2022-07-09T00:02:50;24.20;54.10
25906;DHT22;13713;52.552;13.204;2022-07-09T00:05:15;24.00;54.00
25906;DHT22;13713;52.552;13.204;2022-07-09T00:07:41;24.20;54.20
25906;DHT22;13713;52.552;13.204;2022-07-09T00:10:07;24.20;54.10
25906;DHT22;13713;52.552;13.204;2022-07-09T00:12:32;24.20;54.00
25906;DHT22;13713;52.552;13.204;2022-07-09T00:14:58;24.20;54.00
25906;DHT22;13713;52.552;13.204;2022-07-09T00:17:24;24.20;54.00
25906;DHT22;13713;52.552;13.204;2022-07-09T00:19:51;24.20;54.10
25906;DHT22;13713;52.552;13.204;2022-07-09T00:22:17;24.10;54.60
25906;DHT22;13713;52.552;13.204;2022-07-09T00:24:43;24.10;53.90
25906;DHT22;13713;52.552;13.204;2022-07-09T00:27:08;24.20;54.00
25906;DHT22;13713;52.552;13.204;2022-07-09T00:29:34;24.10;54.00
25906;DHT22;13713;52.552;13.204;2022-07-09T00:32:00;24.10;53.90
25906;DHT22;13713;52.552;13.204;2022-07-09T00:34:25;24.10;54.00
25906;DHT22;13713;52.552;13.204;2022-07-09T00:36:51;24.10;53.90
25906;DHT22;13713;52.552;13.204;2022-07-09T00:39:17;24.10;53.90
25906;DHT22;13713;52.552;13.204;2022-07-09T00:41:42;24.10;54.00
25906;DHT22;13713;52.552;13.204;2022-07-09T00:44:08;24.10;54.00
25906;DHT22;13713;52.552;13.204;2022-07-09T00:46:34;24.10;54.00
25906;DHT22;13713;52.552;13.204;2022-07-09T00:48:59;24.10;54.00
25906;DHT22;13713;52.552;13.204;2022-07-09T00:51:30;24.10;54.00
25906;DHT22;13713;52.552;13.204;2022-07-09T00:53:56;24.10;54.00
25906;DHT22;13713;52.552;13.204;2022-07-09T00:56:22;24.10;54.00
25906;DHT22;13713;52.552;13.204;2022-07-09T00:58:48;24.10;53.90
25906;DHT22;13713;52.552;13.204;2022-07-09T01:01:15;24.10;54.00
25906;DHT22;13713;52.552;13.204;2022-07-09T01:03:41;24.10;54.00
25906;DHT22;13713;52.552;13.204;2022-07-09T01:06:07;24.10;54.00
25906;DHT22;13713;52.552;13.204;2022-07-09T01:08:32;24.10;54.00
25906;DHT22;13713;52.552;13.204;2022-07-09T01:10:58;24.10;54.00
25906;DHT22;13713;52.552;13.204;2022-07-09T01:13:25;24.10;53.90
25906;DHT22;13713;52.552;13.204;2022-07-09T01:15:51;24.10;53.90
25906;DHT22;13713;52.552;13.204;2022-07-09T01:18:17;24.20;54.00
25906;DHT22;13713;52.552;13.204;2022-07-09T01:20:43;24.10;53.90
25906;DHT22;13713;52.552;13.204;2022-07-09T01:23:09;24.10;53.90
25906;DHT22;13713;52.552;13.204;2022-07-09T01:25:42;24.10;54.00
25906;DHT22;13713;52.552;13.204;2022-07-09T01:28:12;24.10;54.00
25906;DHT22;13713;52.552;13.204;2022-07-09T01:30:39;24.10;54.00
25906;DHT22;13713;52.552;13.204;2022-07-09T01:33:05;24.00;53.90
25906;DHT22;13713;52.552;13.204;2022-07-09T01:35:31;24.00;53.90
25906;DHT22;13713;52.552;13.204;2022-07-09T01:37:57;24.10;53.90
25906;DHT22;13713;52.552;13.204;2022-07-09T01:40:23;24.00;53.90
25906;DHT22;13713;52.552;13.204;2022-07-09T01:42:49;24.00;53.90
25906;DHT22;13713;52.552;13.204;2022-07-09T01:45:16;24.00;53.90
25906;DHT22;13713;52.552;13.204;2022-07-09T01:47:42;24.00;53.90
25906;DHT22;13713;52.552;13.204;2022-07-09T01:50:09;24.00;53.90
25906;DHT22;13713;52.552;13.204;2022-07-09T01:52:34;24.00;53.90
25906;DHT22;13713;52.552;13.204;2022-07-09T01:55:00;24.00;53.90
25906;DHT22;13713;52.552;13.204;2022-07-09T01:57:26;24.00;53.90
25906;DHT22;13713;52.552;13.204;2022-07-09T01:59:52;24.00;53.90
25906;DHT22;13713;52.552;13.204;2022-07-09T02:02:19;24.00;53.90
25906;DHT22;13713;52.552;13.204;2022-07-09T02:04:45;24.00;53.90
25906;DHT22;13713;52.552;13.204;2022-07-09T02:07:11;24.00;53.90
25906;DHT22;13713;52.552;13.204;2022-07-09T02:09:38;24.00;53.90
25906;DHT22;13713;52.552;13.204;2022-07-09T02:12:03;24.00;54.50
25906;DHT22;13713;52.552;13.204;2022-07-09T02:14:30;24.00;53.80
25906;DHT22;13713;52.552;13.204;2022-07-09T02:16:55;24.00;53.90
25906;DHT22;13713;52.552;13.204;2022-07-09T02:19:21;24.00;53.80
25906;DHT22;13713;52.552;13.204;2022-07-09T02:21:47;24.00;53.80
25906;DHT22;13713;52.552;13.204;2022-07-09T02:24:12;24.00;53.80
25906;DHT22;13713;52.552;13.204;2022-07-09T02:26:38;24.00;53.70
25906;DHT22;13713;52.552;13.204;2022-07-09T02:29:04;24.00;53.80
25906;DHT22;13713;52.552;13.204;2022-07-09T02:31:30;23.90;53.70
25906;DHT22;13713;52.552;13.204;2022-07-09T02:33:56;24.00;53.70
25906;DHT22;13713;52.552;13.204;2022-07-09T02:36:22;24.00;53.80
25906;DHT22;13713;52.552;13.204;2022-07-09T02:38:48;24.00;53.70
25906;DHT22;13713;52.552;13.204;2022-07-09T02:41:14;23.90;53.70
25906;DHT22;13713;52.552;13.204;2022-07-09T02:43:40;24.00;53.70
25906;DHT22;13713;52.552;13.204;2022-07-09T02:46:11;23.90;53.60
25906;DHT22;13713;52.552;13.204;2022-07-09T02:48:38;23.90;53.70
25906;DHT22;13713;52.552;13.204;2022-07-09T02:51:04;24.00;53.70
25906;DHT22;13713;52.552;13.204;2022-07-09T02:53:30;23.90;53.70
25906;DHT22;13713;52.552;13.204;2022-07-09T02:55:56;24.00;53.70
25906;DHT22;13713;52.552;13.204;2022-07-09T02:58:21;23.90;54.30
25906;DHT22;13713;52.552;13.204;2022-07-09T03:00:47;23.90;53.60
25906;DHT22;13713;52.552;13.204;2022-07-09T03:03:13;24.00;53.70
25906;DHT22;13713;52.552;13.204;2022-07-09T03:05:38;23.90;53.60
25906;DHT22;13713;52.552;13.204;2022-07-09T03:08:04;24.00;53.60
25906;DHT22;13713;52.552;13.204;2022-07-09T03:10:31;24.00;53.60
25906;DHT22;13713;52.552;13.204;2022-07-09T03:12:56;24.00;53.70
25906;DHT22;13713;52.552;13.204;2022-07-09T03:15:22;23.90;53.60
25906;DHT22;13713;52.552;13.204;2022-07-09T03:17:48;23.90;53.50
25906;DHT22;13713;52.552;13.204;2022-07-09T03:20:14;23.90;53.60
25906;DHT22;13713;52.552;13.204;2022-07-09T03:22:40;23.90;53.60
25906;DHT22;13713;52.552;13.204;2022-07-09T03:25:07;23.90;53.50
25906;DHT22;13713;52.552;13.204;2022-07-09T03:27:34;23.90;53.50
25906;DHT22;13713;52.552;13.204;2022-07-09T03:30:00;23.90;53.50
25906;DHT22;13713;52.552;13.204;2022-07-09T03:32:26;23.90;53.50
25906;DHT22;13713;52.552;13.204;2022-07-09T03:34:52;24.00;53.70
25906;DHT22;13713;52.552;13.204;2022-07-09T03:37:18;23.90;53.50
25906;DHT22;13713;52.552;13.204;2022-07-09T03:39:44;23.90;53.50
25906;DHT22;13713;52.552;13.204;2022-07-09T03:42:13;23.90;53.50
25906;DHT22;13713;52.552;13.204;2022-07-09T03:44:39;23.90;53.50
25906;DHT22;13713;52.552;13.204;2022-07-09T03:47:05;23.90;53.60
25906;DHT22;13713;52.552;13.204;2022-07-09T03:49:32;23.90;54.10
25906;DHT22;13713;52.552;13.204;2022-07-09T03:51:58;23.90;53.40
25906;DHT22;13713;52.552;13.204;2022-07-09T03:54:23;23.90;54.10
25906;DHT22;13713;52.552;13.204;2022-07-09T03:56:49;23.90;53.40
25906;DHT22;13713;52.552;13.204;2022-07-09T03:59:15;23.80;53.40
25906;DHT22;13713;52.552;13.204;2022-07-09T04:01:41;23.90;53.40
25906;DHT22;13713;52.552;13.204;2022-07-09T04:04:07;23.90;53.50
25906;DHT22;13713;52.552;13.204;2022-07-09T04:06:32;23.90;53.40
25906;DHT22;13713;52.552;13.204;2022-07-09T04:08:58;23.90;53.40
25906;DHT22;13713;52.552;13.204;2022-07-09T04:11:30;23.80;53.40
25906;DHT22;13713;52.552;13.204;2022-07-09T04:13:55;23.90;53.50
25906;DHT22;13713;52.552;13.204;2022-07-09T04:16:21;23.90;53.50
25906;DHT22;13713;52.552;13.204;2022-07-09T04:18:47;23.90;53.50
25906;DHT22;13713;52.552;13.204;2022-07-09T04:21:12;23.90;53.40
25906;DHT22;13713;52.552;13.204;2022-07-09T04:23:38;23.90;53.50
25906;DHT22;13713;52.552;13.204;2022-07-09T04:26:03;23.90;53.50
25906;DHT22;13713;52.552;13.204;2022-07-09T04:28:29;23.90;53.50
25906;DHT22;13713;52.552;13.204;2022-07-09T04:30:56;23.90;53.40
25906;DHT22;13713;52.552;13.204;2022-07-09T04:33:21;23.90;53.50
25906;DHT22;13713;52.552;13.204;2022-07-09T04:35:47;23.90;53.50
25906;DHT22;13713;52.552;13.204;2022-07-09T04:38:13;23.90;53.50
25906;DHT22;13713;52.552;13.204;2022-07-09T04:40:39;23.90;54.20
25906;DHT22;13713;52.552;13.204;2022-07-09T04:43:06;23.90;53.50
25906;DHT22;13713;52.552;13.204;2022-07-09T04:45:32;23.90;54.10
25906;DHT22;13713;52.552;13.204;2022-07-09T04:47:58;23.90;53.50
25906;DHT22;13713;52.552;13.204;2022-07-09T04:50:25;23.80;53.50
25906;DHT22;13713;52.552;13.204;2022-07-09T04:52:50;23.80;53.50
25906;DHT22;13713;52.552;13.204;2022-07-09T04:55:16;23.90;53.50
25906;DHT22;13713;52.552;13.204;2022-07-09T04:57:42;23.80;53.50
25906;DHT22;13713;52.552;13.204;2022-07-09T05:00:09;23.90;53.50
25906;DHT22;13713;52.552;13.204;2022-07-09T05:02:35;23.80;53.50
25906;DHT22;13713;52.552;13.204;2022-07-09T05:05:00;23.80;53.50
25906;DHT22;13713;52.552;13.204;2022-07-09T05:07:26;23.80;53.50
25906;DHT22;13713;52.552;13.204;2022-07-09T05:09:52;23.80;53.50
25906;DHT22;13713;52.552;13.204;2022-07-09T05:12:17;23.80;53.50
25906;DHT22;13713;52.552;13.204;2022-07-09T05:14:43;23.80;53.50
25906;DHT22;13713;52.552;13.204;2022-07-09T05:17:08;23.90;53.50
25906;DHT22;13713;52.552;13.204;2022-07-09T05:19:34;23.80;53.50
25906;DHT22;13713;52.552;13.204;2022-07-09T05:22:00;23.80;53.50
25906;DHT22;13713;52.552;13.204;2022-07-09T05:24:26;23.80;53.50
25906;DHT22;13713;52.552;13.204;2022-07-09T05:26:52;23.80;53.50
25906;DHT22;13713;52.552;13.204;2022-07-09T05:29:18;23.80;53.50
25906;DHT22;13713;52.552;13.204;2022-07-09T05:31:43;23.80;53.50
25906;DHT22;13713;52.552;13.204;2022-07-09T05:34:09;23.80;53.50
25906;DHT22;13713;52.552;13.204;2022-07-09T05:36:35;23.80;53.60
25906;DHT22;13713;52.552;13.204;2022-07-09T05:39:00;23.80;53.60
25906;DHT22;13713;52.552;13.204;2022-07-09T05:41:27;23.90;53.60
25906;DHT22;13713;52.552;13.204;2022-07-09T05:43:53;23.80;54.10
25906;DHT22;13713;52.552;13.204;2022-07-09T05:46:19;23.80;53.50
25906;DHT22;13713;52.552;13.204;2022-07-09T05:48:47;23.80;53.50
25906;DHT22;13713;52.552;13.204;2022-07-09T05:51:12;23.80;53.50
25906;DHT22;13713;52.552;13.204;2022-07-09T05:53:38;23.80;53.40
25906;DHT22;13713;52.552;13.204;2022-07-09T05:56:04;23.80;53.70
25906;DHT22;13713;52.552;13.204;2022-07-09T05:58:30;23.80;53.40
25906;DHT22;13713;52.552;13.204;2022-07-09T06:00:55;23.80;53.40
25906;DHT22;13713;52.552;13.204;2022-07-09T06:03:21;23.80;53.50
25906;DHT22;13713;52.552;13.204;2022-07-09T06:05:47;23.80;53.40
25906;DHT22;13713;52.552;13.204;2022-07-09T06:08:13;23.80;53.40
25906;DHT22;13713;52.552;13.204;2022-07-09T06:10:38;23.80;53.30
25906;DHT22;13713;52.552;13.204;2022-07-09T06:13:04;23.80;53.30
25906;DHT22;13713;52.552;13.204;2022-07-09T06:15:29;23.80;53.30
25906;DHT22;13713;52.552;13.204;2022-07-09T06:17:55;23.80;53.40
25906;DHT22;13713;52.552;13.204;2022-07-09T06:20:21;23.80;53.40
25906;DHT22;13713;52.552;13.204;2022-07-09T06:22:46;23.80;53.40
25906;DHT22;13713;52.552;13.204;2022-07-09T06:25:12;23.80;53.30
25906;DHT22;13713;52.552;13.204;2022-07-09T06:27:38;23.80;53.30
25906;DHT22;13713;52.552;13.204;2022-07-09T06:30:06;23.80;53.40
25906;DHT22;13713;52.552;13.204;2022-07-09T06:32:32;23.80;53.40
25906;DHT22;13713;52.552;13.204;2022-07-09T06:34:58;23.80;53.30
25906;DHT22;13713;52.552;13.204;2022-07-09T06:37:24;23.80;53.30
25906;DHT22;13713;52.552;13.204;2022-07-09T06:39:49;23.80;53.30
25906;DHT22;13713;52.552;13.204;2022-07-09T06:42:17;23.80;53.30
25906;DHT22;13713;52.552;13.204;2022-07-09T06:44:46;23.80;53.30
25906;DHT22;13713;52.552;13.204;2022-07-09T06:47:11;23.80;53.30
25906;DHT22;13713;52.552;13.204;2022-07-09T06:49:38;23.70;53.80
25906;DHT22;13713;52.552;13.204;2022-07-09T06:52:04;23.80;53.30
25906;DHT22;13713;52.552;13.204;2022-07-09T06:54:30;23.80;53.20
25906;DHT22;13713;52.552;13.204;2022-07-09T06:56:55;23.80;53.30
25906;DHT22;13713;52.552;13.204;2022-07-09T06:59:24;23.80;53.40
25906;DHT22;13713;52.552;13.204;2022-07-09T07:01:50;23.80;53.30
25906;DHT22;13713;52.552;13.204;2022-07-09T07:04:16;23.80;53.30
25906;DHT22;13713;52.552;13.204;2022-07-09T07:06:42;23.80;53.30
25906;DHT22;13713;52.552;13.204;2022-07-09T07:09:08;23.80;53.30
25906;DHT22;13713;52.552;13.204;2022-07-09T07:11:34;23.80;53.30
25906;DHT22;13713;52.552;13.204;2022-07-09T07:14:00;23.80;53.30
25906;DHT22;13713;52.552;13.204;2022-07-09T07:16:26;23.80;53.40
25906;DHT22;13713;52.552;13.204;2022-07-09T07:18:51;23.80;53.40
25906;DHT22;13713;52.552;13.204;2022-07-09T07:21:17;23.80;53.40
25906;DHT22;13713;52.552;13.204;2022-07-09T07:23:43;23.80;53.30
25906;DHT22;13713;52.552;13.204;2022-07-09T07:26:09;23.80;53.30
25906;DHT22;13713;52.552;13.204;2022-07-09T07:28:34;23.80;53.40
25906;DHT22;13713;52.552;13.204;2022-07-09T07:31:00;23.80;53.40
25906;DHT22;13713;52.552;13.204;2022-07-09T07:33:26;23.90;53.40
25906;DHT22;13713;52.552;13.204;2022-07-09T07:35:51;23.80;53.40
25906;DHT22;13713;52.552;13.204;2022-07-09T07:38:17;23.80;53.30
25906;DHT22;13713;52.552;13.204;2022-07-09T07:40:43;23.90;53.50
25906;DHT22;13713;52.552;13.204;2022-07-09T07:43:12;23.80;53.40
25906;DHT22;13713;52.552;13.204;2022-07-09T07:45:38;23.80;53.30
25906;DHT22;13713;52.552;13.204;2022-07-09T07:48:03;23.80;53.30
25906;DHT22;13713;52.552;13.204;2022-07-09T07:50:29;23.80;53.40
25906;DHT22;13713;52.552;13.204;2022-07-09T07:52:55;23.80;53.40
25906;DHT22;13713;52.552;13.204;2022-07-09T07:55:22;23.80;53.40
25906;DHT22;13713;52.552;13.204;2022-07-09T07:57:47;23.90;53.50
25906;DHT22;13713;52.552;13.204;2022-07-09T08:00:13;23.80;53.50
25906;DHT22;13713;52.552;13.204;2022-07-09T08:02:39;23.80;53.50
25906;DHT22;13713;52.552;13.204;2022-07-09T08:05:05;23.80;53.40
25906;DHT22;13713;52.552;13.204;2022-07-09T08:07:31;23.80;53.50
25906;DHT22;13713;52.552;13.204;2022-07-09T08:09:56;23.80;53.50
25906;DHT22;13713;52.552;13.204;2022-07-09T08:12:22;23.80;53.50
25906;DHT22;13713;52.552;13.204;2022-07-09T08:14:48;23.90;53.50
25906;DHT22;13713;52.552;13.204;2022-07-09T08:17:13;23.90;53.50
25906;DHT22;13713;52.552;13.204;2022-07-09T08:19:39;23.80;53.50
25906;DHT22;13713;52.552;13.204;2022-07-09T08:22:05;23.80;53.40
25906;DHT22;13713;52.552;13.204;2022-07-09T08:24:30;23.80;53.80
25906;DHT22;13713;52.552;13.204;2022-07-09T08:26:56;23.80;53.60
25906;DHT22;13713;52.552;13.204;2022-07-09T08:29:24;23.70;53.50
25906;DHT22;13713;52.552;13.204;2022-07-09T08:31:50;23.90;53.60
25906;DHT22;13713;52.552;13.204;2022-07-09T08:34:15;23.80;53.60
25906;DHT22;13713;52.552;13.204;2022-07-09T08:36:41;23.80;53.50
25906;DHT22;13713;52.552;13.204;2022-07-09T08:39:07;23.80;53.50
25906;DHT22;13713;52.552;13.204;2022-07-09T08:41:32;23.80;53.50
25906;DHT22;13713;52.552;13.204;2022-07-09T08:43:58;23.70;53.50
25906;DHT22;13713;52.552;13.204;2022-07-09T08:46:24;23.80;53.50
25906;DHT22;13713;52.552;13.204;2022-07-09T08:48:50;23.80;53.50
25906;DHT22;13713;52.552;13.204;2022-07-09T08:51:17;23.90;53.60
25906;DHT22;13713;52.552;13.204;2022-07-09T08:53:44;23.80;54.20
25906;DHT22;13713;52.552;13.204;2022-07-09T08:56:10;23.80;53.60
25906;DHT22;13713;52.552;13.204;2022-07-09T08:58:37;23.80;53.60
25906;DHT22;13713;52.552;13.204;2022-07-09T09:01:04;23.80;53.60
25906;DHT22;13713;52.552;13.204;2022-07-09T09:03:30;23.80;53.60
25906;DHT22;13713;52.552;13.204;2022-07-09T09:06:03;23.90;53.80
25906;DHT22;13713;52.552;13.204;2022-07-09T09:08:35;23.80;53.70
25906;DHT22;13713;52.552;13.204;2022-07-09T09:11:02;23.80;53.60
25906;DHT22;13713;52.552;13.204;2022-07-09T09:13:28;23.80;53.70
25906;DHT22;13713;52.552;13.204;2022-07-09T09:16:07;23.80;53.60
25906;DHT22;13713;52.552;13.204;2022-07-09T09:18:39;23.80;53.60
25906;DHT22;13713;52.552;13.204;2022-07-09T09:21:06;23.80;53.70
25906;DHT22;13713;52.552;13.204;2022-07-09T09:23:45;23.80;53.70
25906;DHT22;13713;52.552;13.204;2022-07-09T09:33:58;23.80;53.80
25906;DHT22;13713;52.552;13.204;2022-07-09T09:36:46;23.80;53.80
25906;DHT22;13713;52.552;13.204;2022-07-09T09:41:49;23.80;53.80
25906;DHT22;13713;52.552;13.204;2022-07-09T09:44:26;23.80;53.80
25906;DHT22;13713;52.552;13.204;2022-07-09T09:46:55;23.80;53.80
25906;DHT22;13713;52.552;13.204;2022-07-09T09:49:21;23.80;53.80
25906;DHT22;13713;52.552;13.204;2022-07-09T09:52:06;23.80;53.90
25906;DHT22;13713;52.552;13.204;2022-07-09T09:54:34;23.80;53.90
25906;DHT22;13713;52.552;13.204;2022-07-09T09:57:00;23.80;53.90
25906;DHT22;13713;52.552;13.204;2022-07-09T09:59:26;23.80;53.90
25906;DHT22;13713;52.552;13.204;2022-07-09T10:01:51;23.80;53.90
25906;DHT22;13713;52.552;13.204;2022-07-09T10:04:17;23.80;53.90
25906;DHT22;13713;52.552;13.204;2022-07-09T10:06:44;23.80;53.90
25906;DHT22;13713;52.552;13.204;2022-07-09T10:09:14;23.80;53.90
25906;DHT22;13713;52.552;13.204;2022-07-09T10:11:47;23.80;54.00
25906;DHT22;13713;52.552;13.204;2022-07-09T10:14:34;23.80;54.00
25906;DHT22;13713;52.552;13.204;2022-07-09T10:17:11;23.80;54.00
25906;DHT22;13713;52.552;13.204;2022-07-09T10:19:37;23.90;54.10
25906;DHT22;13713;52.552;13.204;2022-07-09T10:22:03;23.80;54.10
25906;DHT22;13713;52.552;13.204;2022-07-09T10:24:32;23.80;54.10
25906;DHT22;13713;52.552;13.204;2022-07-09T10:27:09;23.90;54.10
25906;DHT22;13713;52.552;13.204;2022-07-09T10:29:36;23.80;54.10
25906;DHT22;13713;52.552;13.204;2022-07-09T10:32:03;23.90;54.20
25906;DHT22;13713;52.552;13.204;2022-07-09T10:34:31;23.90;54.20
25906;DHT22;13713;52.552;13.204;2022-07-09T10:36:58;23.90;54.10
25906;DHT22;13713;52.552;13.204;2022-07-09T10:39:24;23.80;54.10
25906;DHT22;13713;52.552;13.204;2022-07-09T10:42:18;23.90;54.20
25906;DHT22;13713;52.552;13.204;2022-07-09T10:44:47;23.90;54.20
25906;DHT22;13713;52.552;13.204;2022-07-09T10:47:15;23.90;54.20
25906;DHT22;13713;52.552;13.204;2022-07-09T10:49:41;23.90;54.20
25906;DHT22;13713;52.552;13.204;2022-07-09T10:52:08;23.90;54.20
25906;DHT22;13713;52.552;13.204;2022-07-09T10:54:35;23.90;54.20
25906;DHT22;13713;52.552;13.204;2022-07-09T10:57:10;23.90;54.10
25906;DHT22;13713;52.552;13.204;2022-07-09T10:59:36;23.90;54.20
25906;DHT22;13713;52.552;13.204;2022-07-09T11:02:02;23.90;54.10
25906;DHT22;13713;52.552;13.204;2022-07-09T11:04:29;23.90;54.20
25906;DHT22;13713;52.552;13.204;2022-07-09T11:06:55;23.90;54.10
25906;DHT22;13713;52.552;13.204;2022-07-09T11:09:21;23.90;54.20
25906;DHT22;13713;52.552;13.204;2022-07-09T11:11:46;23.90;54.20
25906;DHT22;13713;52.552;13.204;2022-07-09T11:14:13;23.90;54.20
25906;DHT22;13713;52.552;13.204;2022-07-09T11:16:39;23.90;54.20
25906;DHT22;13713;52.552;13.204;2022-07-09T11:19:18;23.90;54.20
25906;DHT22;13713;52.552;13.204;2022-07-09T11:21:44;23.80;54.10
25906;DHT22;13713;52.552;13.204;2022-07-09T11:24:20;23.90;54.20
25906;DHT22;13713;52.552;13.204;2022-07-09T11:26:48;23.90;54.50
25906;DHT22;13713;52.552;13.204;2022-07-09T11:29:17;24.00;54.30
25906;DHT22;13713;52.552;13.204;2022-07-09T11:31:50;23.90;54.20
25906;DHT22;13713;52.552;13.204;2022-07-09T11:34:16;24.00;54.30
25906;DHT22;13713;52.552;13.204;2022-07-09T11:36:47;23.90;54.30
25906;DHT22;13713;52.552;13.204;2022-07-09T11:39:28;23.90;54.20
25906;DHT22;13713;52.552;13.204;2022-07-09T11:41:55;23.90;54.30
25906;DHT22;13713;52.552;13.204;2022-07-09T11:44:21;23.90;54.30
25906;DHT22;13713;52.552;13.204;2022-07-09T11:47:04;23.90;54.30
25906;DHT22;13713;52.552;13.204;2022-07-09T11:49:34;24.00;54.40
25906;DHT22;13713;52.552;13.204;2022-07-09T11:52:00;23.90;54.30
25906;DHT22;13713;52.552;13.204;2022-07-09T11:54:28;24.00;54.40
25906;DHT22;13713;52.552;13.204;2022-07-09T11:56:53;23.90;54.30
25906;DHT22;13713;52.552;13.204;2022-07-09T11:59:29;24.00;54.40
25906;DHT22;13713;52.552;13.204;2022-07-09T12:02:00;24.00;54.40
25906;DHT22;13713;52.552;13.204;2022-07-09T12:04:30;23.90;54.30
25906;DHT22;13713;52.552;13.204;2022-07-09T12:06:56;23.90;54.30
25906;DHT22;13713;52.552;13.204;2022-07-09T12:09:30;24.00;54.30
25906;DHT22;13713;52.552;13.204;2022-07-09T12:11:56;23.90;54.30
25906;DHT22;13713;52.552;13.204;2022-07-09T12:14:22;23.90;54.30
25906;DHT22;13713;52.552;13.204;2022-07-09T12:16:47;23.90;54.30
25906;DHT22;13713;52.552;13.204;2022-07-09T12:19:13;24.00;54.40
25906;DHT22;13713;52.552;13.204;2022-07-09T12:21:38;24.00;54.30
25906;DHT22;13713;52.552;13.204;2022-07-09T12:24:04;24.00;54.40
25906;DHT22;13713;52.552;13.204;2022-07-09T12:26:30;23.90;54.30
25906;DHT22;13713;52.552;13.204;2022-07-09T12:28:56;24.00;54.40
25906;DHT22;13713;52.552;13.204;2022-07-09T12:31:22;23.90;54.30
25906;DHT22;13713;52.552;13.204;2022-07-09T12:33:47;23.90;54.30
25906;DHT22;13713;52.552;13.204;2022-07-09T12:36:13;23.90;54.30
25906;DHT22;13713;52.552;13.204;2022-07-09T12:38:42;24.00;54.40
25906;DHT22;13713;52.552;13.204;2022-07-09T12:41:07;24.00;54.40
25906;DHT22;13713;52.552;13.204;2022-07-09T12:43:33;23.90;54.40
25906;DHT22;13713;52.552;13.204;2022-07-09T12:45:59;23.90;54.30
25906;DHT22;13713;52.552;13.204;2022-07-09T12:48:24;24.00;54.40
25906;DHT22;13713;52.552;13.204;2022-07-09T12:50:50;23.90;54.30
25906;DHT22;13713;52.552;13.204;2022-07-09T12:53:16;24.00;54.40
25906;DHT22;13713;52.552;13.204;2022-07-09T12:55:41;23.90;54.40
25906;DHT22;13713;52.552;13.204;2022-07-09T12:58:07;23.90;54.40
25906;DHT22;13713;52.552;13.204;2022-07-09T13:00:32;24.00;54.40
25906;DHT22;13713;52.552;13.204;2022-07-09T13:02:58;23.90;54.40
25906;DHT22;13713;52.552;13.204;2022-07-09T13:05:24;23.90;54.50
25906;DHT22;13713;52.552;13.204;2022-07-09T13:07:49;24.00;54.50
25906;DHT22;13713;52.552;13.204;2022-07-09T13:10:15;23.90;54.40
25906;DHT22;13713;52.552;13.204;2022-07-09T13:12:41;24.00;54.60
25906;DHT22;13713;52.552;13.204;2022-07-09T13:15:06;24.00;54.60
25906;DHT22;13713;52.552;13.204;2022-07-09T13:17:32;24.00;54.60
25906;DHT22;13713;52.552;13.204;2022-07-09T13:19:58;24.00;54.60
25906;DHT22;13713;52.552;13.204;2022-07-09T13:22:24;24.00;54.60
25906;DHT22;13713;52.552;13.204;2022-07-09T13:24:50;24.00;54.60
25906;DHT22;13713;52.552;13.204;2022-07-09T13:27:15;23.90;54.50
25906;DHT22;13713;52.552;13.204;2022-07-09T13:29:44;23.90;54.50
25906;DHT22;13713;52.552;13.204;2022-07-09T13:32:10;24.00;54.60
25906;DHT22;13713;52.552;13.204;2022-07-09T13:34:35;23.90;54.50
25906;DHT22;13713;52.552;13.204;2022-07-09T13:37:01;24.00;54.60
25906;DHT22;13713;52.552;13.204;2022-07-09T13:39:27;24.00;55.20
25906;DHT22;13713;52.552;13.204;2022-07-09T13:41:53;24.00;54.60
25906;DHT22;13713;52.552;13.204;2022-07-09T13:44:19;24.00;54.60
25906;DHT22;13713;52.552;13.204;2022-07-09T13:46:44;24.00;54.60
25906;DHT22;13713;52.552;13.204;2022-07-09T13:49:10;24.00;54.70
25906;DHT22;13713;52.552;13.204;2022-07-09T13:51:35;24.00;54.60
25906;DHT22;13713;52.552;13.204;2022-07-09T13:54:01;24.00;54.70
25906;DHT22;13713;52.552;13.204;2022-07-09T13:56:27;24.00;54.60
25906;DHT22;13713;52.552;13.204;2022-07-09T13:58:52;24.00;54.70
25906;DHT22;13713;52.552;13.204;2022-07-09T14:01:18;24.00;54.70
25906;DHT22;13713;52.552;13.204;2022-07-09T14:03:45;24.00;54.70
25906;DHT22;13713;52.552;13.204;2022-07-09T14:06:11;23.90;54.60
25906;DHT22;13713;52.552;13.204;2022-07-09T14:08:37;23.90;54.60
25906;DHT22;13713;52.552;13.204;2022-07-09T14:11:03;24.00;54.70
25906;DHT22;13713;52.552;13.204;2022-07-09T14:13:29;24.00;54.70
25906;DHT22;13713;52.552;13.204;2022-07-09T14:15:56;24.00;54.70
25906;DHT22;13713;52.552;13.204;2022-07-09T14:18:22;24.00;55.30
25906;DHT22;13713;52.552;13.204;2022-07-09T14:20:48;24.00;54.80
25906;DHT22;13713;52.552;13.204;2022-07-09T14:23:14;24.00;54.80
25906;DHT22;13713;52.552;13.204;2022-07-09T14:25:39;24.00;54.80
25906;DHT22;13713;52.552;13.204;2022-07-09T14:28:05;24.00;54.80
25906;DHT22;13713;52.552;13.204;2022-07-09T14:30:31;24.00;54.80
25906;DHT22;13713;52.552;13.204;2022-07-09T14:32:58;24.00;54.80
25906;DHT22;13713;52.552;13.204;2022-07-09T14:35:25;24.00;54.80
25906;DHT22;13713;52.552;13.204;2022-07-09T14:37:51;24.00;54.80
25906;DHT22;13713;52.552;13.204;2022-07-09T14:40:17;24.00;54.80
25906;DHT22;13713;52.552;13.204;2022-07-09T14:42:42;24.00;54.80
25906;DHT22;13713;52.552;13.204;2022-07-09T14:45:08;24.00;55.30
25906;DHT22;13713;52.552;13.204;2022-07-09T14:47:35;24.00;54.80
25906;DHT22;13713;52.552;13.204;2022-07-09T14:50:01;24.00;54.70
25906;DHT22;13713;52.552;13.204;2022-07-09T14:52:26;24.00;54.80
25906;DHT22;13713;52.552;13.204;2022-07-09T14:54:52;24.00;54.70
25906;DHT22;13713;52.552;13.204;2022-07-09T14:57:18;24.00;54.70
25906;DHT22;13713;52.552;13.204;2022-07-09T14:59:43;24.00;54.80
25906;DHT22;13713;52.552;13.204;2022-07-09T15:02:09;24.00;54.80
25906;DHT22;13713;52.552;13.204;2022-07-09T15:04:34;24.00;54.80
25906;DHT22;13713;52.552;13.204;2022-07-09T15:07:00;24.00;54.80
25906;DHT22;13713;52.552;13.204;2022-07-09T15:09:26;24.00;54.80
25906;DHT22;13713;52.552;13.204;2022-07-09T15:11:53;24.00;54.80
25906;DHT22;13713;52.552;13.204;2022-07-09T15:14:18;23.90;54.70
25906;DHT22;13713;52.552;13.204;2022-07-09T15:16:44;24.00;54.80
25906;DHT22;13713;52.552;13.204;2022-07-09T15:19:09;24.00;54.80
25906;DHT22;13713;52.552;13.204;2022-07-09T15:21:35;24.00;54.80